Time;durP1;ratioP1;P1;durP2;ratioP2;P2;SDS_P1;SDS_P2;PMS_P1;PMS_P2;Temp;Humidity;BMP_temperature;BMP_pressure;BME280_temperature;BME280_humidity;BME280_pressure;Samples;Min_cycle;Max_cycle;Signal;HPM_P1;HPM_P2
2022/10/06 00:00:37;;;;;;;3.42;1.00;;;13.40;99.90;;;;;;5060914;28;20037;-54
2022/10/06 00:03:03;;;;;;;4.25;0.70;;;13.40;99.90;;;;;;5060715;28;20028;-54
2022/10/06 00:05:29;;;;;;;4.65;0.90;;;13.40;99.90;;;;;;5057823;28;20040;-54
2022/10/06 00:07:55;;;;;;;3.45;0.90;;;13.40;99.90;;;;;;5062929;28;20041;-51
2022/10/06 00:10:21;;;;;;;4.35;0.88;;;13.30;99.90;;;;;;5058377;28;20114;-52
2022/10/06 00:12:49;;;;;;;4.60;0.93;;;13.30;99.90;;;;;;5055565;28;20032;-49
2022/10/06 00:15:18;;;;;;;3.92;1.30;;;13.30;99.90;;;;;;5055556;28;20045;-54
2022/10/06 00:17:44;;;;;;;2.47;0.85;;;13.20;99.90;;;;;;5058419;28;20040;-53
2022/10/06 00:20:10;;;;;;;4.35;1.05;;;13.20;99.90;;;;;;5056485;28;20040;-54
2022/10/06 00:22:41;;;;;;;3.45;0.95;;;13.20;99.90;;;;;;5055581;28;20048;-50
2022/10/06 00:25:08;;;;;;;4.03;0.95;;;13.10;99.90;;;;;;5058387;28;20040;-54
2022/10/06 00:27:35;;;;;;;4.27;0.90;;;13.00;99.90;;;;;;5061462;28;20083;-49
2022/10/06 00:30:02;;;;;;;6.85;1.08;;;13.00;99.90;;;;;;5056560;28;20294;-53
2022/10/06 00:32:28;;;;;;;5.38;1.00;;;13.00;99.90;;;;;;5052033;28;20083;-52
2022/10/06 00:34:54;;;;;;;3.08;1.15;;;12.90;99.90;;;;;;5056916;28;20078;-51
2022/10/06 00:37:19;;;;;;;3.92;1.00;;;12.90;99.90;;;;;;5054296;28;20136;-53
2022/10/06 00:39:45;;;;;;;4.05;0.82;;;12.80;99.90;;;;;;5056436;28;20073;-52
2022/10/06 00:42:25;;;;;;;3.97;1.15;;;12.80;99.90;;;;;;5057462;28;20036;-52
2022/10/06 00:44:51;;;;;;;5.55;1.20;;;12.80;99.90;;;;;;5050248;28;20063;-50
2022/10/06 00:47:20;;;;;;;2.97;1.17;;;12.80;99.90;;;;;;5055126;28;20037;-49
2022/10/06 00:49:46;;;;;;;8.30;1.20;;;12.80;99.90;;;;;;5058435;28;21669;-53
2022/10/06 00:52:17;;;;;;;8.27;1.20;;;12.70;99.90;;;;;;5056095;28;20033;-52
2022/10/06 00:54:42;;;;;;;5.63;1.10;;;12.70;99.90;;;;;;5056693;28;20049;-52
2022/10/06 00:57:09;;;;;;;8.68;1.20;;;12.70;99.90;;;;;;5058094;28;20045;-50
2022/10/06 00:59:36;;;;;;;3.33;0.98;;;12.70;99.90;;;;;;5055554;28;20676;-55
2022/10/06 01:02:55;;;;;;;9.02;1.45;;;12.70;99.90;;;;;;5056076;28;20498;-49
2022/10/06 01:05:46;;;;;;;5.10;1.35;;;12.70;99.90;;;;;;5050480;28;20059;-53
2022/10/06 01:08:13;;;;;;;4.80;1.13;;;12.60;99.90;;;;;;5056932;28;20044;-51
2022/10/06 01:10:39;;;;;;;4.50;1.40;;;12.60;99.90;;;;;;5058951;28;20036;-53
2022/10/06 01:13:05;;;;;;;6.85;1.30;;;12.60;99.90;;;;;;5057859;28;20040;-51
2022/10/06 01:15:32;;;;;;;3.97;1.00;;;12.60;99.90;;;;;;5055065;28;22397;-51
2022/10/06 01:18:07;;;;;;;5.80;1.70;;;12.60;99.90;;;;;;5057541;28;20075;-54
2022/10/06 01:20:35;;;;;;;5.10;1.20;;;12.50;99.90;;;;;;5056230;28;20049;-52
2022/10/06 01:23:04;;;;;;;6.10;1.20;;;12.50;99.90;;;;;;5059440;28;20094;-51
2022/10/06 01:25:31;;;;;;;6.75;1.48;;;12.40;99.90;;;;;;5058655;28;20039;-54
2022/10/06 01:27:58;;;;;;;5.78;1.40;;;12.40;99.90;;;;;;5053812;28;20072;-54
2022/10/06 01:30:28;;;;;;;5.57;1.27;;;12.40;99.90;;;;;;5057550;28;20552;-54
2022/10/06 01:32:53;;;;;;;5.35;1.30;;;12.40;99.90;;;;;;5061666;28;20037;-52
2022/10/06 01:35:19;;;;;;;4.60;1.15;;;12.30;99.90;;;;;;5054653;28;20029;-53
2022/10/06 01:37:44;;;;;;;4.93;1.20;;;12.30;99.90;;;;;;5054959;28;20048;-54
2022/10/06 01:40:10;;;;;;;4.63;1.20;;;12.30;99.90;;;;;;5053328;28;20061;-51
2022/10/06 01:42:36;;;;;;;13.60;1.83;;;12.40;99.90;;;;;;5057590;28;20052;-54
2022/10/06 01:45:03;;;;;;;5.00;1.65;;;12.30;99.90;;;;;;5050323;28;20070;-53
2022/10/06 01:47:28;;;;;;;7.20;1.27;;;12.40;99.90;;;;;;5054339;28;20059;-53
2022/10/06 01:49:55;;;;;;;4.43;1.25;;;12.40;99.90;;;;;;5056349;28;20045;-54
2022/10/06 01:52:20;;;;;;;7.10;1.45;;;12.40;99.90;;;;;;5061876;28;20044;-54
2022/10/06 01:54:46;;;;;;;5.15;1.30;;;12.40;99.90;;;;;;5057135;28;20055;-53
2022/10/06 01:57:11;;;;;;;6.90;1.55;;;12.40;99.90;;;;;;5058036;28;20036;-54
2022/10/06 01:59:37;;;;;;;5.68;1.13;;;12.40;99.90;;;;;;5052032;28;20048;-52
2022/10/06 02:02:03;;;;;;;7.93;1.40;;;12.40;99.90;;;;;;5049097;28;20095;-53
2022/10/06 02:04:29;;;;;;;8.25;1.67;;;12.30;99.90;;;;;;5055479;28;20083;-52
2022/10/06 02:06:55;;;;;;;10.00;1.80;;;12.30;99.90;;;;;;5059216;28;20367;-53
2022/10/06 02:09:21;;;;;;;9.98;1.60;;;12.20;99.90;;;;;;5057136;28;20068;-54
2022/10/06 02:11:47;;;;;;;7.55;1.88;;;12.20;99.90;;;;;;5055675;28;20402;-54
2022/10/06 02:14:13;;;;;;;5.55;1.70;;;12.10;99.90;;;;;;5061165;28;20041;-54
2022/10/06 02:16:39;;;;;;;7.95;2.13;;;12.00;99.90;;;;;;5057818;28;20045;-52
2022/10/06 02:19:05;;;;;;;7.57;1.40;;;12.00;99.90;;;;;;5054364;28;20041;-53
2022/10/06 02:21:31;;;;;;;9.82;1.42;;;12.00;99.90;;;;;;5050829;28;20462;-52
2022/10/06 02:23:57;;;;;;;7.70;1.88;;;12.00;99.90;;;;;;5054198;28;20529;-52
2022/10/06 02:26:22;;;;;;;9.30;1.85;;;11.90;99.90;;;;;;5056587;28;20048;-52
2022/10/06 02:28:51;;;;;;;9.73;1.80;;;11.90;99.90;;;;;;5057068;28;20070;-53
2022/10/06 02:31:16;;;;;;;8.27;1.60;;;11.90;99.90;;;;;;5055357;28;20032;-53
2022/10/06 02:33:42;;;;;;;8.02;1.52;;;11.90;99.90;;;;;;5059971;28;20043;-49
2022/10/06 02:36:11;;;;;;;10.65;2.38;;;11.80;99.90;;;;;;5055969;28;20082;-54
2022/10/06 02:38:38;;;;;;;9.90;2.03;;;11.80;99.90;;;;;;5057223;28;20067;-50
2022/10/06 02:41:04;;;;;;;8.63;1.92;;;11.80;99.90;;;;;;5053978;28;20041;-53
2022/10/06 02:43:30;;;;;;;9.80;1.77;;;11.80;99.90;;;;;;5054434;28;20171;-53
2022/10/06 02:45:58;;;;;;;8.82;1.80;;;11.80;99.90;;;;;;5053977;28;20066;-51
2022/10/06 02:48:25;;;;;;;10.30;1.60;;;11.70;99.90;;;;;;5057071;28;20532;-52
2022/10/06 02:50:58;;;;;;;7.07;1.48;;;11.70;99.90;;;;;;5050276;28;20039;-50
2022/10/06 02:53:24;;;;;;;10.27;1.88;;;11.70;99.90;;;;;;5051234;28;20506;-53
2022/10/06 02:56:04;;;;;;;8.85;2.40;;;11.70;99.90;;;;;;5056113;28;20490;-51
2022/10/06 02:58:30;;;;;;;11.07;1.95;;;11.70;99.90;;;;;;5056070;28;20083;-49
2022/10/06 03:01:08;;;;;;;7.97;1.70;;;11.60;99.90;;;;;;5056817;28;20474;-49
2022/10/06 03:03:34;;;;;;;10.48;1.70;;;11.60;99.90;;;;;;5059574;28;21352;-54
2022/10/06 03:06:03;;;;;;;8.07;1.77;;;11.60;99.90;;;;;;5057416;28;20041;-53
2022/10/06 03:08:29;;;;;;;11.10;1.98;;;11.50;99.90;;;;;;5055778;28;20101;-53
2022/10/06 03:11:02;;;;;;;7.32;1.70;;;11.50;99.90;;;;;;5055197;28;20419;-52
2022/10/06 03:13:29;;;;;;;14.32;2.10;;;11.50;99.90;;;;;;5055862;28;20055;-51
2022/10/06 03:15:56;;;;;;;7.10;1.70;;;11.50;99.90;;;;;;5056175;28;20173;-50
2022/10/06 03:18:21;;;;;;;8.73;1.80;;;11.40;99.90;;;;;;5059953;28;20037;-50
2022/10/06 03:20:48;;;;;;;11.13;1.98;;;11.50;99.90;;;;;;5056504;28;20052;-49
2022/10/06 03:23:14;;;;;;;10.40;1.98;;;11.40;99.90;;;;;;5059666;28;20078;-52
2022/10/06 03:25:39;;;;;;;9.02;1.90;;;11.40;99.90;;;;;;5060340;28;20068;-51
2022/10/06 03:28:05;;;;;;;8.10;1.70;;;11.40;99.90;;;;;;5055682;28;20041;-50
2022/10/06 03:30:31;;;;;;;9.20;1.65;;;11.30;99.90;;;;;;5062858;28;20385;-51
2022/10/06 03:33:00;;;;;;;12.45;1.73;;;11.30;99.90;;;;;;5059346;28;20120;-50
2022/10/06 03:35:26;;;;;;;8.73;2.00;;;11.30;99.90;;;;;;5063911;28;20041;-52
2022/10/06 03:37:51;;;;;;;10.23;1.88;;;11.30;99.90;;;;;;5058372;28;20694;-50
2022/10/06 03:40:18;;;;;;;8.48;1.90;;;11.30;99.90;;;;;;5056360;28;20037;-54
2022/10/06 03:42:43;;;;;;;10.55;2.17;;;11.20;99.90;;;;;;5058056;28;20491;-53
2022/10/06 03:45:09;;;;;;;12.32;1.90;;;11.20;99.90;;;;;;5057936;28;20056;-52
2022/10/06 03:47:35;;;;;;;14.02;1.75;;;11.20;99.90;;;;;;5059408;28;20631;-50
2022/10/06 03:50:00;;;;;;;15.35;2.15;;;11.20;99.90;;;;;;5061067;28;20040;-53
2022/10/06 03:52:26;;;;;;;6.32;1.60;;;11.20;99.90;;;;;;5053431;28;20040;-52
2022/10/06 03:54:52;;;;;;;11.88;2.00;;;11.20;99.90;;;;;;5061696;28;20041;-51
2022/10/06 03:57:18;;;;;;;10.93;1.95;;;11.10;99.90;;;;;;5058353;28;20040;-51
2022/10/06 03:59:43;;;;;;;8.20;1.85;;;11.10;99.90;;;;;;5053945;28;20470;-51
2022/10/06 04:02:10;;;;;;;8.07;1.50;;;11.10;99.90;;;;;;5058259;28;20064;-53
2022/10/06 04:04:36;;;;;;;10.98;2.55;;;11.10;99.90;;;;;;5055410;28;20170;-49
2022/10/06 04:07:02;;;;;;;11.73;2.33;;;11.10;99.90;;;;;;5055871;28;20041;-50
2022/10/06 04:09:28;;;;;;;10.35;1.92;;;11.00;99.90;;;;;;5054816;28;20464;-50
2022/10/06 04:11:54;;;;;;;10.73;1.77;;;11.00;99.90;;;;;;5053966;28;20063;-49
2022/10/06 04:14:19;;;;;;;11.63;1.60;;;11.00;99.90;;;;;;5053680;28;20036;-51
2022/10/06 04:16:47;;;;;;;12.00;1.92;;;10.90;99.90;;;;;;5055231;28;20469;-50
2022/10/06 04:19:14;;;;;;;10.35;1.90;;;10.90;99.90;;;;;;5057542;28;20129;-53
2022/10/06 04:21:42;;;;;;;10.43;2.13;;;10.90;99.90;;;;;;5063611;28;20486;-49
2022/10/06 04:24:12;;;;;;;10.55;2.10;;;10.90;99.90;;;;;;5056153;28;20083;-52
2022/10/06 04:26:41;;;;;;;10.43;2.10;;;10.80;99.90;;;;;;5057562;28;20145;-53
2022/10/06 04:29:07;;;;;;;10.63;1.63;;;10.80;99.90;;;;;;5062795;28;20100;-52
2022/10/06 04:31:37;;;;;;;9.82;1.75;;;10.80;99.90;;;;;;5057455;28;20041;-50
2022/10/06 04:34:05;;;;;;;11.38;2.08;;;10.80;99.90;;;;;;5053999;28;20044;-48
2022/10/06 04:36:34;;;;;;;9.27;2.05;;;10.80;99.90;;;;;;5056820;28;20041;-51
2022/10/06 04:39:02;;;;;;;9.15;2.15;;;10.70;99.90;;;;;;5059987;28;20139;-49
2022/10/06 04:41:33;;;;;;;8.13;1.88;;;10.70;99.90;;;;;;5054413;28;20037;-50
2022/10/06 04:43:59;;;;;;;8.18;1.55;;;10.80;99.90;;;;;;5057555;28;21886;-53
2022/10/06 04:46:26;;;;;;;9.88;1.83;;;10.80;99.90;;;;;;5052661;28;20057;-52
2022/10/06 04:48:53;;;;;;;9.88;2.10;;;10.70;99.90;;;;;;5056601;28;20090;-50
2022/10/06 04:51:20;;;;;;;10.50;1.80;;;10.70;99.90;;;;;;5059985;28;20045;-49
2022/10/06 04:53:47;;;;;;;12.23;1.83;;;10.70;99.90;;;;;;5057310;28;20040;-52
2022/10/06 04:56:18;;;;;;;9.10;1.35;;;10.70;99.90;;;;;;5052115;28;20851;-50
2022/10/06 04:58:47;;;;;;;13.57;1.95;;;10.70;99.90;;;;;;5058023;28;20082;-51
2022/10/06 05:01:22;;;;;;;9.55;1.98;;;10.70;99.90;;;;;;5053089;28;20298;-54
2022/10/06 05:03:52;;;;;;;10.73;2.03;;;10.60;99.90;;;;;;5052575;28;20090;-52
2022/10/06 05:06:22;;;;;;;10.95;1.83;;;10.60;99.90;;;;;;5054861;28;20056;-52
2022/10/06 05:08:49;;;;;;;8.02;1.92;;;10.60;99.90;;;;;;5054109;28;20095;-49
2022/10/06 05:11:15;;;;;;;12.65;2.53;;;10.60;99.90;;;;;;5057520;28;20032;-52
2022/10/06 05:13:42;;;;;;;10.52;1.80;;;10.50;99.90;;;;;;5056007;28;20041;-53
2022/10/06 05:16:11;;;;;;;11.40;1.80;;;10.60;99.90;;;;;;5049011;28;20364;-48
2022/10/06 05:18:37;;;;;;;8.75;2.47;;;10.50;99.90;;;;;;5056421;28;20126;-50
2022/10/06 05:21:05;;;;;;;12.85;2.47;;;10.50;99.90;;;;;;5057843;28;20091;-52
2022/10/06 05:23:32;;;;;;;12.05;2.40;;;10.50;99.90;;;;;;5055642;28;20224;-49
2022/10/06 05:25:59;;;;;;;7.22;1.65;;;10.40;99.90;;;;;;5058420;28;20029;-50
2022/10/06 05:28:27;;;;;;;13.45;2.10;;;10.40;99.90;;;;;;5054537;28;20040;-51
2022/10/06 05:31:00;;;;;;;;;;;10.50;99.90;;;;;;5058601;28;20037;-53
2022/10/06 05:33:28;;;;;;;11.55;1.70;;;10.40;99.90;;;;;;5053225;28;20179;-52
2022/10/06 05:35:58;;;;;;;8.93;1.88;;;10.40;99.90;;;;;;5057834;28;20029;-53
2022/10/06 05:38:26;;;;;;;12.95;2.30;;;10.40;99.90;;;;;;5054290;28;21608;-53
2022/10/06 05:41:03;;;;;;;14.63;2.78;;;10.40;99.90;;;;;;5058514;28;20041;-52
2022/10/06 05:43:29;;;;;;;12.82;2.00;;;10.30;99.90;;;;;;5052298;28;20072;-50
2022/10/06 05:45:57;;;;;;;12.23;2.63;;;10.30;99.90;;;;;;5056239;28;20090;-52
2022/10/06 05:48:24;;;;;;;10.73;2.22;;;10.30;99.90;;;;;;5054616;28;20040;-51
2022/10/06 05:51:04;;;;;;;8.63;1.60;;;10.30;99.90;;;;;;5059316;28;20036;-53
2022/10/06 05:53:31;;;;;;;11.98;1.90;;;10.30;99.90;;;;;;5052647;28;20037;-52
2022/10/06 05:56:08;;;;;;;10.43;1.52;;;10.30;99.90;;;;;;5056907;28;20586;-52
2022/10/06 05:58:36;;;;;;;13.45;2.13;;;10.30;99.90;;;;;;5058310;28;20117;-50
2022/10/06 06:01:08;;;;;;;7.70;1.73;;;10.30;99.90;;;;;;5055442;28;20052;-52
2022/10/06 06:03:34;;;;;;;12.93;2.72;;;10.40;99.90;;;;;;5053290;28;20114;-52
2022/10/06 06:05:59;;;;;;;9.57;2.08;;;10.40;99.90;;;;;;5057712;28;20032;-52
2022/10/06 06:08:25;;;;;;;9.73;2.03;;;10.40;99.90;;;;;;5054282;28;20044;-52
2022/10/06 06:10:51;;;;;;;10.73;1.83;;;10.40;99.90;;;;;;5060906;28;20037;-53
2022/10/06 06:13:20;;;;;;;9.43;1.98;;;10.50;99.90;;;;;;5054420;28;20061;-52
2022/10/06 06:16:02;;;;;;;8.95;2.40;;;10.50;99.90;;;;;;5053768;28;20041;-53
2022/10/06 06:18:29;;;;;;;9.23;1.80;;;10.50;99.90;;;;;;5057657;28;20506;-52
2022/10/06 06:20:56;;;;;;;9.35;2.22;;;10.50;99.90;;;;;;5053945;28;20056;-51
2022/10/06 06:23:22;;;;;;;12.88;1.80;;;10.60;99.90;;;;;;5058825;28;20400;-53
2022/10/06 06:26:02;;;;;;;9.40;1.92;;;10.60;99.90;;;;;;5057931;28;20036;-52
2022/10/06 06:28:28;;;;;;;12.18;2.15;;;10.70;99.90;;;;;;5058007;28;21266;-52
2022/10/06 06:30:59;;;;;;;9.07;1.83;;;10.70;99.90;;;;;;5055632;28;20090;-52
2022/10/06 06:33:24;;;;;;;10.85;2.03;;;10.70;99.90;;;;;;5053338;28;20082;-52
2022/10/06 06:35:50;;;;;;;8.02;1.80;;;10.70;99.90;;;;;;5053454;28;20044;-52
2022/10/06 06:38:15;;;;;;;11.80;2.35;;;10.80;99.90;;;;;;5050746;28;20047;-52
2022/10/06 06:40:41;;;;;;;8.07;1.85;;;11.70;99.90;;;;;;5057003;28;20478;-51
2022/10/06 06:43:07;;;;;;;11.73;2.38;;;12.30;99.90;;;;;;5053891;28;20135;-54
2022/10/06 06:45:32;;;;;;;13.90;2.17;;;12.80;99.90;;;;;;5052051;28;20048;-53
2022/10/06 06:47:58;;;;;;;10.75;2.10;;;12.70;99.90;;;;;;5056381;28;20053;-52
2022/10/06 06:50:23;;;;;;;10.85;1.98;;;12.70;99.90;;;;;;5065011;28;20410;-53
2022/10/06 06:52:49;;;;;;;8.40;2.00;;;12.60;99.90;;;;;;5065708;28;20056;-54
2022/10/06 06:55:14;;;;;;;6.05;1.70;;;12.50;99.90;;;;;;5058556;28;20148;-54
2022/10/06 06:57:41;;;;;;;10.82;2.00;;;12.30;99.90;;;;;;5064403;28;20381;-53
2022/10/06 07:00:07;;;;;;;12.52;2.08;;;12.30;99.90;;;;;;5066964;28;20132;-55
2022/10/06 07:02:33;;;;;;;7.55;1.90;;;12.20;99.90;;;;;;5064380;28;20091;-51
2022/10/06 07:04:59;;;;;;;10.18;2.00;;;12.20;99.90;;;;;;5063260;28;20060;-53
2022/10/06 07:07:24;;;;;;;12.50;1.73;;;12.30;99.90;;;;;;5065447;28;20182;-50
2022/10/06 07:09:50;;;;;;;10.35;2.38;;;12.30;99.90;;;;;;5063072;28;20437;-52
2022/10/06 07:12:15;;;;;;;11.00;2.30;;;12.30;99.90;;;;;;5060515;28;20123;-52
2022/10/06 07:25:05;;;;;;;11.18;2.00;;;12.30;99.90;;;;;;5067411;28;20037;-50
2022/10/06 07:25:39;;;;;;;9.90;2.20;;;12.60;99.90;;;;;;5065543;28;20397;-54
2022/10/06 07:28:06;;;;;;;10.07;2.08;;;12.70;99.90;;;;;;5062362;28;20043;-52
2022/10/06 07:30:32;;;;;;;8.25;2.33;;;12.80;99.90;;;;;;5060431;28;20075;-53
2022/10/06 07:32:57;;;;;;;11.02;2.03;;;12.80;99.90;;;;;;5058311;28;20091;-55
2022/10/06 07:35:23;;;;;;;10.35;1.95;;;12.90;99.90;;;;;;5060265;28;20044;-53
2022/10/06 07:37:51;;;;;;;10.52;1.83;;;13.10;99.90;;;;;;5058472;28;20045;-54
2022/10/06 07:40:17;;;;;;;;;;;13.00;99.90;;;;;;5057665;28;20056;-51
2022/10/06 07:42:52;;;;;;;10.55;1.90;;;13.10;99.90;;;;;;5061942;28;19932;-54
2022/10/06 07:45:40;;;;;;;8.88;2.15;;;13.20;99.90;;;;;;5060503;28;20065;-53
2022/10/06 07:48:13;;;;;;;8.75;1.90;;;13.30;99.90;;;;;;5062036;28;20044;-52
2022/10/06 07:50:40;;;;;;;7.90;2.30;;;13.40;99.90;;;;;;5057659;28;20490;-53
2022/10/06 07:53:09;;;;;;;10.52;2.33;;;13.50;99.90;;;;;;5063313;28;20036;-55
2022/10/06 07:55:38;;;;;;;10.80;1.80;;;13.60;99.90;;;;;;5062450;28;20113;-53
2022/10/06 07:58:15;;;;;;;8.80;1.80;;;13.60;99.90;;;;;;5061510;28;20080;-54
2022/10/06 08:00:41;;;;;;;11.13;1.85;;;13.70;99.90;;;;;;5060218;28;20409;-51
2022/10/06 08:03:08;;;;;;;11.05;1.90;;;13.80;99.90;;;;;;5060308;28;20040;-55
2022/10/06 08:05:35;;;;;;;8.60;2.13;;;13.90;99.90;;;;;;5066443;28;20110;-55
2022/10/06 08:08:00;;;;;;;9.18;2.00;;;13.90;99.90;;;;;;5060294;28;20040;-53
2022/10/06 08:10:26;;;;;;;9.07;2.50;;;14.00;99.90;;;;;;5061150;28;20051;-52
2022/10/06 08:12:52;;;;;;;11.57;2.13;;;14.10;99.90;;;;;;5063453;28;20045;-55
2022/10/06 08:15:18;;;;;;;9.57;2.08;;;;;;;;;;5065486;28;20110;-52
2022/10/06 08:17:44;;;;;;;9.95;2.20;;;14.20;99.90;;;;;;5065795;28;20136;-53
2022/10/06 08:20:11;;;;;;;7.38;1.70;;;14.30;99.90;;;;;;5063287;28;20447;-54
2022/10/06 08:22:38;;;;;;;10.27;2.00;;;14.30;99.90;;;;;;5055318;28;20045;-53
2022/10/06 08:25:07;;;;;;;7.50;2.28;;;14.40;99.90;;;;;;5057790;28;20109;-54
2022/10/06 08:27:34;;;;;;;10.85;1.77;;;14.40;99.90;;;;;;5057654;28;20474;-52
2022/10/06 08:30:00;;;;;;;11.38;2.10;;;14.40;99.90;;;;;;5057842;28;20032;-54
2022/10/06 08:32:25;;;;;;;9.88;1.65;;;14.50;99.90;;;;;;5055989;28;20032;-50
2022/10/06 08:34:51;;;;;;;10.45;2.10;;;14.50;99.90;;;;;;5049921;28;20169;-55
2022/10/06 08:37:22;;;;;;;7.05;1.98;;;14.60;99.90;;;;;;5055672;28;20032;-54
2022/10/06 08:39:53;;;;;;;9.55;2.25;;;14.60;99.90;;;;;;5056358;28;20040;-53
2022/10/06 08:42:41;;;;;;;7.65;1.40;;;14.70;99.90;;;;;;5058838;28;20036;-50
2022/10/06 08:45:22;;;;;;;9.50;2.33;;;14.80;99.90;;;;;;5055746;28;20080;-54
2022/10/06 08:48:08;;;;;;;11.75;2.00;;;14.90;99.90;;;;;;5053649;28;20086;-52
2022/10/06 08:50:42;;;;;;;9.43;2.20;;;14.90;99.90;;;;;;5063257;28;20166;-54
2022/10/06 08:53:27;;;;;;;11.80;2.28;;;15.00;99.90;;;;;;5049384;28;20518;-56
2022/10/06 08:56:04;;;;;;;10.68;1.88;;;15.00;99.90;;;;;;5062265;28;20045;-55
2022/10/06 08:58:57;;;;;;;11.23;2.40;;;15.10;99.90;;;;;;5063410;28;20116;-53
2022/10/06 09:01:32;;;;;;;9.43;1.92;;;15.20;99.90;;;;;;5068175;28;20033;-50
2022/10/06 09:04:02;;;;;;;7.97;1.60;;;15.20;99.90;;;;;;5063607;28;20040;-52
2022/10/06 09:06:37;;;;;;;8.60;1.95;;;15.30;99.90;;;;;;5081544;28;20055;-53
2022/10/06 09:09:25;;;;;;;9.32;2.00;;;15.30;99.90;;;;;;5060915;28;20124;-53
2022/10/06 09:11:58;;;;;;;10.80;1.55;;;15.40;99.90;;;;;;5059490;28;20044;-53
2022/10/06 09:14:37;;;;;;;10.00;2.40;;;15.50;99.90;;;;;;5058230;28;20052;-55
2022/10/06 09:17:09;;;;;;;10.57;1.90;;;15.50;99.90;;;;;;5059783;28;20060;-52
2022/10/06 09:19:46;;;;;;;9.15;2.25;;;15.60;99.90;;;;;;5056582;28;20102;-52
2022/10/06 09:22:17;;;;;;;9.00;2.13;;;15.70;99.90;;;;;;5061625;28;20048;-54
2022/10/06 09:24:49;;;;;;;7.25;2.00;;;15.70;99.90;;;;;;5059319;28;20307;-52
2022/10/06 09:27:32;;;;;;;9.45;1.80;;;15.50;99.90;;;;;;5058413;28;20661;-54
2022/10/06 09:30:00;;;;;;;11.48;2.15;;;15.70;99.90;;;;;;5059072;28;20090;-54
2022/10/06 09:32:28;;;;;;;7.90;1.92;;;15.70;99.90;;;;;;5055338;28;20681;-56
2022/10/06 09:34:58;;;;;;;12.38;2.28;;;15.90;99.90;;;;;;5052794;28;20064;-55
2022/10/06 09:37:25;;;;;;;11.15;2.00;;;16.00;99.90;;;;;;5066280;28;20037;-54
2022/10/06 09:39:52;;;;;;;9.75;2.22;;;16.00;99.90;;;;;;5057297;28;20060;-54
2022/10/06 09:42:34;;;;;;;10.55;2.00;;;16.30;99.90;;;;;;5056762;28;20414;-56
2022/10/06 09:45:16;;;;;;;10.93;2.03;;;16.40;99.90;;;;;;5056532;28;20049;-54
2022/10/06 09:47:45;;;;;;;9.68;1.95;;;16.60;99.90;;;;;;5061038;28;20044;-53
2022/10/06 09:50:11;;;;;;;10.10;1.73;;;16.70;99.90;;;;;;5059769;28;20064;-55
2022/10/06 09:53:03;;;;;;;9.52;1.95;;;16.70;99.90;;;;;;5058875;28;20135;-55
2022/10/06 09:55:37;;;;;;;10.70;1.90;;;16.50;99.90;;;;;;5058937;28;20113;-53
2022/10/06 09:58:14;;;;;;;6.63;1.55;;;16.40;99.90;;;;;;5059167;28;20133;-54
2022/10/06 10:00:52;;;;;;;7.07;1.30;;;16.50;99.90;;;;;;5060494;28;20486;-54
2022/10/06 10:03:18;;;;;;;;;;;16.40;99.90;;;;;;5058057;28;20041;-53
2022/10/06 10:05:49;;;;;;;8.70;1.70;;;16.40;99.90;;;;;;5052653;28;20389;-55
2022/10/06 10:08:20;;;;;;;7.07;1.60;;;16.70;99.90;;;;;;5059519;28;20040;-54
2022/10/06 10:10:47;;;;;;;7.75;1.50;;;16.40;99.90;;;;;;5064119;28;20104;-56
2022/10/06 10:13:23;;;;;;;9.80;2.07;;;16.30;99.90;;;;;;5058100;28;20444;-52
2022/10/06 10:16:18;;;;;;;7.13;1.67;;;16.30;99.90;;;;;;5057593;28;20041;-55
2022/10/06 10:18:46;;;;;;;9.13;1.80;;;15.90;99.90;;;;;;5058846;28;20052;-53
2022/10/06 10:21:23;;;;;;;6.78;1.60;;;16.10;99.90;;;;;;5060640;28;20214;-56
2022/10/06 10:23:58;;;;;;;6.63;1.30;;;16.30;99.90;;;;;;5058808;28;20055;-51
2022/10/06 10:26:30;;;;;;;8.68;2.13;;;16.50;99.90;;;;;;5063259;28;20558;-51
2022/10/06 10:29:29;;;;;;;8.73;1.80;;;16.70;99.90;;;;;;5061730;28;20041;-53
2022/10/06 10:32:20;;;;;;;8.60;1.83;;;16.90;99.90;;;;;;5062117;28;20044;-54
2022/10/06 10:34:49;;;;;;;9.40;1.58;;;17.00;99.90;;;;;;5059174;28;20048;-54
2022/10/06 10:37:23;;;;;;;6.45;1.20;;;17.20;99.90;;;;;;5056725;28;20036;-54
2022/10/06 10:40:26;;;;;;;6.85;1.48;;;17.30;99.90;;;;;;5057643;28;20115;-52
2022/10/06 10:43:24;;;;;;;7.70;1.50;;;17.30;99.90;;;;;;5065083;28;20509;-55
2022/10/06 10:45:58;;;;;;;8.25;1.73;;;17.30;99.90;;;;;;5072734;28;20101;-53
2022/10/06 10:48:48;;;;;;;5.45;1.38;;;17.40;99.90;;;;;;5067027;28;20041;-54
2022/10/06 10:51:31;;;;;;;6.75;1.40;;;17.50;99.90;;;;;;5058706;28;20037;-53
2022/10/06 10:54:03;;;;;;;5.80;1.33;;;17.50;99.90;;;;;;5064745;28;20060;-53
2022/10/06 10:56:31;;;;;;;7.00;1.70;;;17.60;99.90;;;;;;5060638;28;20045;-54
2022/10/06 10:59:14;;;;;;;10.10;1.60;;;17.70;99.90;;;;;;5054799;28;20052;-55
2022/10/06 11:02:11;;;;;;;10.85;1.63;;;17.80;99.90;;;;;;5057902;28;20052;-52
2022/10/06 11:04:42;;;;;;;9.98;1.77;;;17.80;99.90;;;;;;5054064;28;20411;-52
2022/10/06 11:07:18;;;;;;;3.78;1.25;;;18.00;99.90;;;;;;5060572;28;20076;-54
2022/10/06 11:10:13;;;;;;;5.97;1.27;;;18.00;99.90;;;;;;5054307;28;20072;-50
2022/10/06 11:12:51;;;;;;;8.63;1.55;;;17.80;99.90;;;;;;5061394;28;20057;-54
2022/10/06 11:15:45;;;;;;;7.85;1.67;;;17.80;99.90;;;;;;5052177;28;20507;-53
2022/10/06 11:18:25;;;;;;;3.40;1.02;;;17.80;99.90;;;;;;5056637;28;20458;-51
2022/10/06 11:21:02;;;;;;;6.03;1.45;;;17.60;99.90;;;;;;5061225;28;20045;-52
2022/10/06 11:23:44;;;;;;;7.90;1.55;;;17.50;99.90;;;;;;5051316;28;20059;-55
2022/10/06 11:26:27;;;;;;;5.85;1.30;;;17.40;99.90;;;;;;5055009;28;20057;-53
2022/10/06 11:29:17;;;;;;;7.07;1.48;;;17.30;99.90;;;;;;5055754;28;20039;-55
2022/10/06 11:32:05;;;;;;;6.82;1.75;;;17.30;99.90;;;;;;5057561;28;20089;-54
2022/10/06 11:34:30;;;;;;;8.30;1.60;;;17.40;99.90;;;;;;5063601;28;20036;-54
2022/10/06 11:37:22;;;;;;;6.82;1.60;;;17.50;99.90;;;;;;5063041;28;20032;-54
2022/10/06 11:39:50;;;;;;;6.28;1.60;;;17.50;99.90;;;;;;5064906;28;20555;-52
2022/10/06 11:42:35;;;;;;;5.43;1.48;;;17.30;99.90;;;;;;5071128;28;20124;-54
2022/10/06 11:45:12;;;;;;;5.13;1.35;;;17.00;99.90;;;;;;5067842;28;20101;-53
2022/10/06 11:48:04;;;;;;;7.20;1.40;;;16.80;99.90;;;;;;5067999;28;20474;-54
2022/10/06 11:50:41;;;;;;;10.40;2.20;;;16.80;99.90;;;;;;5066371;28;20521;-55
2022/10/06 11:53:31;;;;;;;8.07;1.50;;;17.00;99.90;;;;;;5066464;28;20414;-51
2022/10/06 11:56:15;;;;;;;7.00;1.15;;;17.20;99.90;;;;;;5066904;28;20680;-53
2022/10/06 11:58:50;;;;;;;7.25;1.30;;;17.50;99.90;;;;;;5067445;28;20572;-53
2022/10/06 12:01:37;;;;;;;6.22;1.48;;;17.50;99.90;;;;;;5066050;28;20451;-53
2022/10/06 12:04:09;;;;;;;5.55;1.60;;;17.60;99.90;;;;;;5061869;28;20549;-54
2022/10/06 12:06:41;;;;;;;5.38;1.30;;;17.40;99.90;;;;;;5055554;28;20661;-53
2022/10/06 12:09:25;;;;;;;7.65;1.20;;;17.50;99.90;;;;;;5057458;28;20076;-53
2022/10/06 12:11:58;;;;;;;4.68;1.40;;;17.20;99.90;;;;;;5061749;28;20044;-52
2022/10/06 12:14:58;;;;;;;6.90;1.42;;;17.10;99.90;;;;;;5060610;28;20064;-54
2022/10/06 12:17:31;;;;;;;9.13;1.60;;;17.10;99.90;;;;;;5060084;28;20071;-51
2022/10/06 12:20:27;;;;;;;6.82;1.30;;;17.00;99.90;;;;;;5057728;28;20059;-54
2022/10/06 12:23:07;;;;;;;7.15;1.38;;;17.10;99.90;;;;;;5057033;28;20513;-53
2022/10/06 12:25:54;;;;;;;4.65;1.15;;;17.20;99.90;;;;;;5065950;28;20037;-54
2022/10/06 12:28:37;;;;;;;7.20;1.30;;;17.40;99.90;;;;;;5063354;28;20048;-53
2022/10/06 12:31:25;;;;;;;7.38;1.30;;;17.40;99.90;;;;;;5061671;28;21224;-54
2022/10/06 12:33:51;;;;;;;;;;;17.40;99.90;;;;;;5060182;28;20071;-53
2022/10/06 12:36:28;;;;;;;5.88;1.42;;;17.60;99.90;;;;;;5057550;28;19924;-53
2022/10/06 12:39:05;;;;;;;11.75;1.83;;;17.60;99.90;;;;;;5060337;28;20131;-52
2022/10/06 12:41:55;;;;;;;6.90;1.50;;;17.60;99.90;;;;;;5060862;28;20049;-54
2022/10/06 12:44:28;;;;;;;6.85;1.20;;;17.50;99.90;;;;;;5061528;28;20551;-54
2022/10/06 12:46:57;;;;;;;7.03;1.48;;;17.50;99.90;;;;;;5059655;28;20063;-52
2022/10/06 12:49:39;;;;;;;6.07;1.60;;;17.40;99.90;;;;;;5059731;28;20131;-54
2022/10/06 12:52:39;;;;;;;7.05;1.40;;;17.30;99.90;;;;;;5060956;28;20037;-53
2022/10/06 12:55:20;;;;;;;5.55;1.40;;;17.00;99.90;;;;;;5054375;28;20863;-52
2022/10/06 12:57:50;;;;;;;5.13;1.20;;;17.20;99.90;;;;;;5062430;28;20044;-53
2022/10/06 13:00:23;;;;;;;5.55;1.20;;;17.40;99.90;;;;;;5061112;28;20049;-54
2022/10/06 13:02:53;;;;;;;6.28;1.25;;;17.60;99.90;;;;;;5061417;28;20517;-53
2022/10/06 13:05:19;;;;;;;5.43;1.33;;;17.70;99.90;;;;;;5055805;28;20521;-54
2022/10/06 13:08:04;;;;;;;4.85;1.17;;;17.80;99.90;;;;;;5061555;28;20620;-54
2022/10/06 13:10:33;;;;;;;7.72;1.48;;;18.00;99.90;;;;;;5060495;28;20522;-50
2022/10/06 13:12:59;;;;;;;6.20;1.27;;;18.10;99.90;;;;;;5058144;28;20075;-53
2022/10/06 13:15:28;;;;;;;4.63;1.17;;;18.10;99.90;;;;;;5056928;28;20193;-52